createdAt,value
2018-02-24T00:00:26.990Z,-2.22
2018-02-24T00:01:26.937Z,-2.24
2018-02-24T00:02:27.193Z,-2.26
2018-02-24T00:03:26.838Z,-2.13
2018-02-24T00:04:26.792Z,-2.13
2018-02-24T00:05:26.739Z,-2.10
2018-02-24T00:06:26.688Z,-2.08
2018-02-24T00:07:26.638Z,-2.22
2018-02-24T00:08:26.891Z,-2.14
2018-02-24T00:09:26.538Z,-2.28
2018-02-24T00:10:26.488Z,-2.18
2018-02-24T00:11:26.436Z,-2.13
2018-02-24T00:12:26.389Z,-2.21
2018-02-24T00:13:26.389Z,-2.16
2018-02-24T00:14:26.588Z,-2.08
2018-02-24T00:15:26.240Z,-2.13
2018-02-24T00:16:26.192Z,-2.13
2018-02-24T00:17:26.137Z,-2.24
2018-02-24T00:18:26.090Z,-2.24
2018-02-24T00:19:26.039Z,-2.25
2018-02-24T00:20:26.288Z,-2.35
2018-02-24T00:21:25.943Z,-2.24
2018-02-24T00:22:25.887Z,-2.26
2018-02-24T00:23:25.838Z,-2.16
2018-02-24T00:24:25.789Z,-2.24
2018-02-24T00:25:25.739Z,-2.21
2018-02-24T00:26:25.994Z,-2.14
2018-02-24T00:27:25.642Z,-2.25
2018-02-24T00:28:25.600Z,-2.28
2018-02-24T00:29:25.641Z,-2.29
2018-02-24T00:30:25.492Z,-2.21
2018-02-24T00:31:25.441Z,-2.18
2018-02-24T00:32:25.687Z,-2.13
2018-02-24T00:33:25.337Z,-2.16
2018-02-24T00:34:25.294Z,-2.00
2018-02-24T00:35:25.288Z,-1.98
2018-02-24T00:36:25.187Z,-2.00
2018-02-24T00:37:25.136Z,-2.18
2018-02-24T00:38:25.086Z,-2.14
2018-02-24T00:39:25.340Z,-2.22
2018-02-24T00:40:24.985Z,-2.22
2018-02-24T00:41:24.990Z,-2.24
2018-02-24T00:42:24.884Z,-2.26
2018-02-24T00:43:24.838Z,-2.21
2018-02-24T00:44:24.785Z,-2.29
2018-02-24T00:45:24.736Z,-2.28
2018-02-24T00:46:24.984Z,-2.35
2018-02-24T00:47:24.634Z,-2.28
2018-02-24T00:48:24.586Z,-2.25
2018-02-24T00:49:24.535Z,-2.38
2018-02-24T00:50:24.486Z,-2.28
2018-02-24T00:51:24.434Z,-2.21
2018-02-24T00:52:24.432Z,-2.14
2018-02-24T00:53:24.634Z,-2.26
2018-02-24T00:54:24.282Z,-2.25
2018-02-24T00:55:24.231Z,-2.32
2018-02-24T00:56:24.181Z,-2.28
2018-02-24T00:57:24.134Z,-2.37
2018-02-24T00:58:24.134Z,-2.35
2018-02-24T00:59:24.036Z,-2.22
2018-02-24T01:00:24.284Z,-2.29
2018-02-24T01:01:23.933Z,-2.37
2018-02-24T01:02:23.880Z,-2.46
2018-02-24T01:03:23.836Z,-2.46
2018-02-24T01:04:23.787Z,-2.59
2018-02-24T01:05:23.734Z,-2.50
2018-02-24T01:06:23.680Z,-2.44
2018-02-24T01:07:23.931Z,-2.37
2018-02-24T01:08:23.584Z,-2.40
2018-02-24T01:09:23.529Z,-2.44
2018-02-24T01:10:23.483Z,-2.32
2018-02-24T01:11:23.428Z,-2.44
2018-02-24T01:12:23.378Z,-2.47
2018-02-24T01:13:23.331Z,-2.37
2018-02-24T01:14:23.636Z,-2.47
2018-02-24T01:15:23.228Z,-2.44
2018-02-24T01:16:23.177Z,-2.35
2018-02-24T01:17:23.133Z,-2.33
2018-02-24T01:18:23.078Z,-2.44
2018-02-24T01:19:23.027Z,-2.41
2018-02-24T01:20:23.428Z,-2.51
2018-02-24T01:21:22.927Z,-2.50
2018-02-24T01:22:22.881Z,-2.53
2018-02-24T01:23:22.826Z,-2.41
2018-02-24T01:24:22.776Z,-2.46
2018-02-24T01:25:22.726Z,-2.48
2018-02-24T01:26:23.077Z,-2.56
2018-02-24T01:27:22.625Z,-2.44
2018-02-24T01:28:22.574Z,-2.37
2018-02-24T01:29:22.527Z,-2.47
2018-02-24T01:30:22.475Z,-2.47
2018-02-24T01:31:22.424Z,-2.53
2018-02-24T01:32:22.675Z,-2.48
2018-02-24T01:33:22.331Z,-2.55
2018-02-24T01:34:22.273Z,-2.51
2018-02-24T01:35:22.223Z,-2.59
2018-02-24T01:36:22.173Z,-2.50
2018-02-24T01:37:22.173Z,-2.44
2018-02-24T01:38:22.371Z,-2.53
2018-02-24T01:39:22.022Z,-2.44
2018-02-24T01:40:21.972Z,-2.50
2018-02-24T01:41:21.921Z,-2.46
2018-02-24T01:42:21.872Z,-2.55
2018-02-24T01:43:21.873Z,-2.64
2018-02-24T01:44:22.074Z,-2.68
2018-02-24T01:45:21.719Z,-2.47
2018-02-24T01:46:21.670Z,-2.41
2018-02-24T01:47:21.619Z,-2.41
2018-02-24T01:48:21.568Z,-2.61
2018-02-24T01:49:21.518Z,-2.62
2018-02-24T01:50:21.467Z,-2.68
2018-02-24T01:51:21.717Z,-2.69
2018-02-24T01:52:21.367Z,-2.66
2018-02-24T01:53:21.317Z,-2.71
2018-02-24T01:54:21.267Z,-2.59
2018-02-24T01:55:21.220Z,-2.56
2018-02-24T01:56:21.166Z,-2.59
2018-02-24T01:57:21.116Z,-2.64
2018-02-24T01:58:21.366Z,-2.64
2018-02-24T01:59:21.015Z,-2.62
2018-02-24T02:00:20.966Z,-2.69
2018-02-24T02:01:20.915Z,-2.64
2018-02-24T02:02:20.863Z,-2.69
2018-02-24T02:03:20.814Z,-2.71
2018-02-24T02:04:20.763Z,-2.72
2018-02-24T02:05:21.114Z,-2.66
2018-02-24T02:06:20.663Z,-2.68
2018-02-24T02:07:20.613Z,-2.64
2018-02-24T02:08:20.563Z,-2.55
2018-02-24T02:09:20.522Z,-2.55
2018-02-24T02:10:20.464Z,-2.59
2018-02-24T02:11:20.562Z,-2.65
2018-02-24T02:12:20.660Z,-2.69
2018-02-24T02:13:20.489Z,-2.71
2018-02-24T02:14:20.259Z,-2.71
2018-02-24T02:15:20.209Z,-2.69
2018-02-24T02:16:20.159Z,-2.68
2018-02-24T02:17:20.119Z,-2.86
2018-02-24T02:18:20.058Z,-2.79
2018-02-24T02:19:20.307Z,-2.80
2018-02-24T02:20:19.961Z,-2.86
2018-02-24T02:21:19.908Z,-2.98
2018-02-24T02:22:19.905Z,-2.98
2018-02-24T02:23:19.809Z,-2.95
2018-02-24T02:24:19.754Z,-2.94
2018-02-24T02:25:20.005Z,-2.86
2018-02-24T02:26:19.654Z,-2.77
2018-02-24T02:27:19.602Z,-2.74
2018-02-24T02:28:19.601Z,-2.80
2018-02-24T02:29:19.504Z,-2.68
2018-02-24T02:30:19.453Z,-2.66
2018-02-24T02:31:19.703Z,-2.74
2018-02-24T02:32:19.352Z,-2.80
2018-02-24T02:33:19.303Z,-2.84
2018-02-24T02:34:19.301Z,-2.66
2018-02-24T02:35:19.202Z,-2.65
2018-02-24T02:36:19.150Z,-2.62
2018-02-24T02:37:19.400Z,-2.62
2018-02-24T02:38:19.049Z,-2.69
2018-02-24T02:39:18.999Z,-2.77
2018-02-24T02:40:18.947Z,-2.83
2018-02-24T02:41:18.899Z,-2.82
2018-02-24T02:42:18.846Z,-2.90
2018-02-24T02:43:19.100Z,-2.89
2018-02-24T02:44:18.747Z,-2.95
2018-02-24T02:45:18.697Z,-2.83
2018-02-24T02:46:18.647Z,-2.89
2018-02-24T02:47:18.595Z,-2.89
2018-02-24T02:48:18.545Z,-2.93
2018-02-24T02:49:18.794Z,-2.89
2018-02-24T02:50:18.444Z,-2.97
2018-02-24T02:51:18.392Z,-2.95
2018-02-24T02:52:18.342Z,-3.00
2018-02-24T02:53:18.296Z,-2.94
2018-02-24T02:54:18.248Z,-2.90
2018-02-24T02:55:18.298Z,-2.97
2018-02-24T02:56:18.440Z,-2.90
2018-02-24T02:57:18.091Z,-3.01
2018-02-24T02:58:18.040Z,-3.00
2018-02-24T02:59:17.987Z,-2.97
2018-02-24T03:00:17.939Z,-2.93
2018-02-24T03:01:17.939Z,-2.98
2018-02-24T03:02:17.842Z,-2.94
2018-02-24T03:03:18.087Z,-3.00
2018-02-24T03:04:17.740Z,-2.98
2018-02-24T03:05:17.686Z,-3.01
2018-02-24T03:06:17.633Z,-3.01
2018-02-24T03:07:17.582Z,-2.98
2018-02-24T03:08:17.536Z,-2.98
2018-02-24T03:09:17.483Z,-2.98
2018-02-24T03:10:17.733Z,-2.97
2018-02-24T03:11:17.382Z,-3.02
2018-02-24T03:12:17.331Z,-3.04
2018-02-24T03:13:17.281Z,-3.13
2018-02-24T03:14:17.228Z,-3.13
2018-02-24T03:15:17.182Z,-3.04
2018-02-24T03:16:17.132Z,-3.01
2018-02-24T03:17:17.445Z,-2.98
2018-02-24T03:18:17.028Z,-3.02
2018-02-24T03:19:16.976Z,-3.02
2018-02-24T03:20:16.930Z,-3.10
2018-02-24T03:21:16.876Z,-3.19
2018-02-24T03:22:16.825Z,-3.07
2018-02-24T03:23:16.780Z,-3.02
2018-02-24T03:24:17.024Z,-3.16
2018-02-24T03:25:16.675Z,-3.12
2018-02-24T03:26:16.628Z,-3.08
2018-02-24T03:27:16.577Z,-3.19
2018-02-24T03:28:16.522Z,-3.18
2018-02-24T03:29:16.571Z,-3.23
2018-02-24T03:30:16.425Z,-3.25
2018-02-24T03:31:16.673Z,-3.22
2018-02-24T03:32:16.319Z,-3.18
2018-02-24T03:33:16.269Z,-3.19
2018-02-24T03:34:16.218Z,-3.21
2018-02-24T03:35:16.170Z,-3.13
2018-02-24T03:36:16.120Z,-3.19
2018-02-24T03:37:16.366Z,-3.05
2018-02-24T03:38:16.015Z,-3.01
2018-02-24T03:39:15.965Z,-3.12
2018-02-24T03:40:15.918Z,-3.13
2018-02-24T03:41:15.870Z,-3.18
2018-02-24T03:42:15.814Z,-3.21
2018-02-24T03:43:16.062Z,-3.30
2018-02-24T03:44:15.712Z,-3.25
2018-02-24T03:45:15.662Z,-3.21
2018-02-24T03:46:15.608Z,-3.21
2018-02-24T03:47:15.558Z,-3.18
2018-02-24T03:48:15.512Z,-3.13
2018-02-24T03:49:15.757Z,-3.15
2018-02-24T03:50:15.458Z,-3.15
2018-02-24T03:51:15.359Z,-3.25
2018-02-24T03:52:15.309Z,-3.22
2018-02-24T03:53:15.258Z,-3.22
2018-02-24T03:54:15.204Z,-3.15
2018-02-24T03:55:15.456Z,-3.23
2018-02-24T03:56:15.153Z,-3.23
2018-02-24T03:57:15.053Z,-3.16
2018-02-24T03:58:15.003Z,-3.26
2018-02-24T03:59:14.964Z,-3.31
2018-02-24T04:00:14.900Z,-3.30
2018-02-24T04:01:15.148Z,-3.31
2018-02-24T04:02:14.797Z,-3.34
2018-02-24T04:03:14.749Z,-3.22
2018-02-24T04:04:14.700Z,-3.25
2018-02-24T04:05:14.646Z,-3.36
2018-02-24T04:06:14.595Z,-3.26
2018-02-24T04:07:14.549Z,-3.33
2018-02-24T04:08:14.797Z,-3.25
2018-02-24T04:09:14.443Z,-3.33
2018-02-24T04:10:14.394Z,-3.33
2018-02-24T04:11:14.343Z,-3.28
2018-02-24T04:12:14.291Z,-3.34
2018-02-24T04:13:14.240Z,-3.41
2018-02-24T04:14:14.264Z,-3.57
2018-02-24T04:15:14.436Z,-3.55
2018-02-24T04:16:14.092Z,-3.55
2018-02-24T04:17:14.045Z,-3.49
2018-02-24T04:18:15.186Z,-3.47
2018-02-24T04:19:14.268Z,-3.51
2018-02-24T04:20:13.889Z,-3.55
2018-02-24T04:21:13.838Z,-3.47
2018-02-24T04:22:14.089Z,-3.49
2018-02-24T04:23:13.732Z,-3.46
2018-02-24T04:24:13.682Z,-3.41
2018-02-24T04:25:13.632Z,-3.33
2018-02-24T04:26:13.580Z,-3.30
2018-02-24T04:27:13.531Z,-3.30
2018-02-24T04:28:13.476Z,-3.26
2018-02-24T04:29:13.728Z,-3.37
2018-02-24T04:30:13.378Z,-3.37
2018-02-24T04:31:13.326Z,-3.37
2018-02-24T04:32:13.278Z,-3.39
2018-02-24T04:33:13.227Z,-3.43
2018-02-24T04:34:13.206Z,-3.36
2018-02-24T04:35:13.122Z,-3.28
2018-02-24T04:36:13.374Z,-3.25
2018-02-24T04:37:13.026Z,-3.26
2018-02-24T04:38:12.975Z,-3.30
2018-02-24T04:39:12.921Z,-3.31
2018-02-24T04:40:12.870Z,-3.31
2018-02-24T04:41:12.820Z,-3.34
2018-02-24T04:42:13.067Z,-3.36
2018-02-24T04:43:12.717Z,-3.44
2018-02-24T04:44:12.665Z,-3.40
2018-02-24T04:45:12.621Z,-3.34
2018-02-24T04:46:12.563Z,-3.34
2018-02-24T04:47:12.513Z,-3.46
2018-02-24T04:48:12.764Z,-3.54
2018-02-24T04:49:12.419Z,-3.51
2018-02-24T04:50:12.365Z,-3.47
2018-02-24T04:51:12.315Z,-3.40
2018-02-24T04:52:12.259Z,-3.40
2018-02-24T04:53:12.209Z,-3.41
2018-02-24T04:54:12.458Z,-3.41
2018-02-24T04:55:12.108Z,-3.40
2018-02-24T04:56:12.055Z,-3.44
2018-02-24T04:57:12.006Z,-3.49
2018-02-24T04:58:11.963Z,-3.43
2018-02-24T04:59:11.905Z,-3.55
2018-02-24T05:00:12.154Z,-3.51
2018-02-24T05:01:11.805Z,-3.44
2018-02-24T05:02:11.750Z,-3.51
2018-02-24T05:03:11.701Z,-3.52
2018-02-24T05:04:11.650Z,-3.54
2018-02-24T05:05:11.598Z,-3.54
2018-02-24T05:06:11.846Z,-3.59
2018-02-24T05:07:11.496Z,-3.54
2018-02-24T05:08:11.444Z,-3.51
2018-02-24T05:09:11.398Z,-3.57
2018-02-24T05:10:11.343Z,-3.58
2018-02-24T05:11:11.292Z,-3.57
2018-02-24T05:12:11.242Z,-3.47
2018-02-24T05:13:11.492Z,-3.43
2018-02-24T05:14:11.139Z,-3.43
2018-02-24T05:15:11.100Z,-3.44
2018-02-24T05:16:11.039Z,-3.51
2018-02-24T05:17:10.987Z,-3.44
2018-02-24T05:18:10.942Z,-3.40
2018-02-24T05:19:11.034Z,-3.44
2018-02-24T05:20:11.135Z,-3.43
2018-02-24T05:21:10.785Z,-3.43
2018-02-24T05:22:10.732Z,-3.46
2018-02-24T05:23:10.680Z,-3.40
2018-02-24T05:24:10.632Z,-3.43
2018-02-24T05:25:10.580Z,-3.51
2018-02-24T05:26:10.526Z,-3.62
2018-02-24T05:27:10.776Z,-3.58
2018-02-24T05:28:10.427Z,-3.41
2018-02-24T05:29:10.374Z,-3.44
2018-02-24T05:30:10.325Z,-3.41
2018-02-24T05:31:10.275Z,-3.49
2018-02-24T05:32:10.225Z,-3.47
2018-02-24T05:33:10.173Z,-3.36
2018-02-24T05:34:10.424Z,-3.46
2018-02-24T05:35:10.073Z,-3.44
2018-02-24T05:36:10.018Z,-3.47
2018-02-24T05:37:09.967Z,-3.59
2018-02-24T05:38:09.917Z,-3.57
2018-02-24T05:39:09.867Z,-3.59
2018-02-24T05:40:09.819Z,-3.57
2018-02-24T05:41:10.064Z,-3.68
2018-02-24T05:42:09.713Z,-3.58
2018-02-24T05:43:09.660Z,-3.59
2018-02-24T05:44:09.613Z,-3.57
2018-02-24T05:45:09.559Z,-3.65
2018-02-24T05:46:09.507Z,-3.54
2018-02-24T05:47:09.457Z,-3.69
2018-02-24T05:48:09.707Z,-3.69
2018-02-24T05:49:09.357Z,-3.69
2018-02-24T05:50:09.303Z,-3.58
2018-02-24T05:51:09.305Z,-3.65
2018-02-24T05:52:09.219Z,-3.58
2018-02-24T05:53:09.152Z,-3.69
2018-02-24T05:54:09.402Z,-3.69
2018-02-24T05:55:09.048Z,-3.64
2018-02-24T05:56:08.997Z,-3.70
2018-02-24T05:57:08.997Z,-3.70
2018-02-24T05:58:08.896Z,-3.68
2018-02-24T05:59:08.845Z,-3.61
2018-02-24T06:00:09.096Z,-3.65
2018-02-24T06:01:08.760Z,-3.70
2018-02-24T06:02:08.694Z,-3.72
2018-02-24T06:03:08.640Z,-3.84
2018-02-24T06:04:08.590Z,-3.86
2018-02-24T06:05:08.544Z,-3.68
2018-02-24T06:06:08.788Z,-3.76
2018-02-24T06:07:08.437Z,-3.76
2018-02-24T06:08:08.387Z,-3.76
2018-02-24T06:09:08.337Z,-3.77
2018-02-24T06:10:08.288Z,-3.83
2018-02-24T06:11:08.233Z,-3.89
2018-02-24T06:12:08.482Z,-3.84
2018-02-24T06:13:08.131Z,-3.83
2018-02-24T06:14:08.081Z,-3.88
2018-02-24T06:15:08.026Z,-3.94
2018-02-24T06:16:07.977Z,-3.92
2018-02-24T06:17:07.927Z,-3.84
2018-02-24T06:18:07.882Z,-3.69
2018-02-24T06:19:08.126Z,-3.84
2018-02-24T06:20:07.773Z,-3.86
2018-02-24T06:21:07.723Z,-3.76
2018-02-24T06:22:07.669Z,-3.72
2018-02-24T06:23:07.671Z,-3.74
2018-02-24T06:24:07.569Z,-3.65
2018-02-24T06:25:07.521Z,-3.83
2018-02-24T06:26:07.768Z,-3.89
2018-02-24T06:27:07.416Z,-3.83
2018-02-24T06:28:07.366Z,-3.83
2018-02-24T06:29:07.418Z,-3.88
2018-02-24T06:30:07.268Z,-3.83
2018-02-24T06:31:07.217Z,-3.83
2018-02-24T06:32:07.263Z,-3.81
2018-02-24T06:33:07.416Z,-3.83
2018-02-24T06:34:07.058Z,-3.86
2018-02-24T06:35:07.143Z,-3.83
2018-02-24T06:36:06.957Z,-3.62
2018-02-24T06:37:06.908Z,-3.70
2018-02-24T06:38:06.854Z,-3.70
2018-02-24T06:39:07.144Z,-3.70
2018-02-24T06:40:07.547Z,-3.59
2018-02-24T06:41:06.701Z,-3.61
2018-02-24T06:42:06.649Z,-3.59
2018-02-24T06:43:06.602Z,-3.70
2018-02-24T06:44:06.597Z,-3.52
2018-02-24T06:45:06.499Z,-3.58
2018-02-24T06:46:06.446Z,-3.57
2018-02-24T06:47:06.697Z,-3.55
2018-02-24T06:48:06.345Z,-3.61
2018-02-24T06:49:06.394Z,-3.44
2018-02-24T06:50:06.492Z,-3.47
2018-02-24T06:51:06.193Z,-3.43
2018-02-24T06:52:06.518Z,-3.46
2018-02-24T06:53:06.295Z,-3.40
2018-02-24T06:54:06.340Z,-3.36
2018-02-24T06:55:05.990Z,-3.33
2018-02-24T06:56:06.241Z,-3.33
2018-02-24T06:57:05.905Z,-3.25
2018-02-24T06:58:05.840Z,-3.33
2018-02-24T06:59:05.785Z,-3.33
2018-02-24T07:00:06.032Z,-3.30
2018-02-24T07:02:05.683Z,-3.26
2018-02-24T07:03:05.585Z,-3.25
2018-02-24T07:04:06.573Z,-3.18
2018-02-24T07:05:05.482Z,-3.19
2018-02-24T07:06:05.730Z,-3.18
2018-02-24T07:07:05.379Z,-3.22
2018-02-24T07:08:05.372Z,-3.18
2018-02-24T07:09:06.314Z,-3.13
2018-02-24T07:10:05.233Z,-3.10
2018-02-24T07:11:06.270Z,-3.02
2018-02-24T07:12:05.428Z,-3.12
2018-02-24T07:13:05.078Z,-3.08
2018-02-24T07:14:05.033Z,-3.00
2018-02-24T07:15:04.975Z,-2.97
2018-02-24T07:16:04.923Z,-2.86
2018-02-24T07:17:04.875Z,-2.90
2018-02-24T07:18:05.222Z,-2.87
2018-02-24T07:19:04.770Z,-2.93
2018-02-24T07:20:04.922Z,-2.93
2018-02-24T07:21:04.673Z,-2.74
2018-02-24T07:22:04.617Z,-2.69
2018-02-24T07:23:04.669Z,-2.61
2018-02-24T07:24:04.819Z,-2.77
2018-02-24T07:25:04.468Z,-2.62
2018-02-24T07:26:04.425Z,-2.62
2018-02-24T07:27:04.367Z,-2.58
2018-02-24T07:28:04.317Z,-2.61
2018-02-24T07:29:04.267Z,-2.38
2018-02-24T07:30:04.217Z,-2.14
2018-02-24T07:31:04.489Z,-1.18
2018-02-24T07:32:04.116Z,-0.30
2018-02-24T07:33:04.170Z,-0.08
2018-02-24T07:34:04.018Z,0.53
2018-02-24T07:35:03.968Z,0.53
2018-02-24T07:36:04.217Z,0.67
2018-02-24T07:37:03.866Z,1.10
2018-02-24T07:38:04.117Z,1.32
2018-02-24T07:39:03.771Z,2.18
2018-02-24T07:40:03.725Z,2.53
2018-02-24T07:41:03.673Z,1.60
2018-02-24T07:42:03.727Z,1.74
2018-02-24T07:43:03.951Z,2.19
2018-02-24T07:44:03.731Z,2.32
2018-02-24T07:45:03.788Z,2.71
2018-02-24T07:46:03.437Z,2.94
2018-02-24T07:47:03.397Z,3.28
2018-02-24T07:48:03.348Z,3.89
2018-02-24T07:49:03.754Z,3.90
2018-02-24T07:50:03.307Z,3.84
2018-02-24T07:51:03.212Z,4.00
2018-02-24T07:52:03.469Z,4.08
2018-02-24T07:53:03.126Z,3.84
2018-02-24T07:54:03.080Z,3.70
2018-02-24T07:55:04.259Z,3.19
2018-02-24T07:57:02.954Z,3.17
2018-02-24T07:58:02.958Z,3.67
2018-02-24T07:59:03.766Z,4.38
2018-02-24T08:00:02.829Z,3.52
2018-02-24T08:01:03.427Z,3.95
2018-02-24T08:02:02.739Z,3.64
2018-02-24T08:03:02.696Z,3.72
2018-02-24T08:04:02.654Z,3.74
2018-02-24T08:05:02.613Z,4.04
2018-02-24T08:06:02.868Z,3.92
2018-02-24T08:07:02.525Z,3.82
2018-02-24T08:08:02.483Z,4.13
2018-02-24T08:09:02.451Z,4.47
2018-02-24T08:10:02.407Z,4.86
2018-02-24T08:11:02.356Z,5.17
2018-02-24T08:12:02.616Z,4.65
2018-02-24T08:13:02.276Z,4.57
2018-02-24T08:14:02.232Z,5.19
2018-02-24T08:15:02.192Z,5.69
2018-02-24T08:16:02.151Z,5.96
2018-02-24T08:17:02.111Z,5.95
2018-02-24T08:18:02.366Z,6.40
2018-02-24T08:19:02.030Z,5.73
2018-02-24T08:20:01.993Z,6.63
2018-02-24T08:21:02.152Z,6.81
2018-02-24T08:22:01.907Z,6.40
2018-02-24T08:23:01.868Z,6.97
2018-02-24T08:24:02.124Z,6.57
2018-02-24T08:25:01.787Z,5.63
2018-02-24T08:26:01.751Z,6.27
2018-02-24T08:27:01.807Z,5.62
2018-02-24T08:28:01.664Z,6.58
2018-02-24T08:29:01.626Z,6.64
2018-02-24T08:30:01.885Z,5.99
2018-02-24T08:31:01.547Z,6.72
2018-02-24T08:32:01.510Z,7.00
2018-02-24T08:33:01.516Z,7.16
2018-02-24T08:34:01.428Z,6.73
2018-02-24T08:35:01.388Z,6.11
2018-02-24T08:36:01.652Z,6.20
2018-02-24T08:37:01.310Z,6.16
2018-02-24T08:38:01.272Z,5.47
2018-02-24T08:39:01.234Z,5.60
2018-02-24T08:40:01.195Z,4.36
2018-02-24T08:41:01.160Z,3.88
2018-02-24T08:42:01.114Z,3.68
2018-02-24T08:43:01.378Z,2.98
2018-02-24T08:44:01.041Z,2.89
2018-02-24T08:45:01.006Z,2.92
2018-02-24T08:46:00.956Z,2.94
2018-02-24T08:47:00.921Z,3.10
2018-02-24T08:48:00.877Z,3.04
2018-02-24T08:49:00.833Z,2.86
2018-02-24T08:50:01.106Z,2.62
2018-02-24T08:51:00.753Z,2.22
2018-02-24T08:52:00.711Z,2.08
2018-02-24T08:53:00.675Z,1.68
2018-02-24T08:54:00.628Z,1.47
2018-02-24T08:55:00.587Z,1.74
2018-02-24T08:56:00.544Z,1.77
2018-02-24T08:57:00.804Z,1.44
2018-02-24T08:58:00.506Z,1.13
2018-02-24T08:59:00.418Z,1.20
2018-02-24T09:00:00.378Z,1.34
2018-02-24T09:01:00.332Z,1.50
2018-02-24T09:02:00.288Z,1.81
2018-02-24T09:03:00.244Z,1.89
2018-02-24T09:04:00.603Z,1.81
2018-02-24T09:05:00.156Z,1.85
2018-02-24T09:06:00.115Z,1.64
2018-02-24T09:07:00.125Z,1.54
2018-02-24T09:08:00.028Z,1.34
2018-02-24T09:08:59.982Z,1.35
2018-02-24T09:10:00.137Z,1.95
2018-02-24T09:11:00.193Z,1.92
2018-02-24T09:11:59.862Z,2.11
2018-02-24T09:12:59.814Z,1.98
2018-02-24T09:14:00.021Z,2.08
2018-02-24T09:14:59.714Z,2.09
2018-02-24T09:15:59.670Z,1.93
2018-02-24T09:16:59.627Z,2.07
2018-02-24T09:17:59.883Z,2.05
2018-02-24T09:18:59.539Z,1.88
2018-02-24T09:19:59.495Z,1.47
2018-02-24T09:20:59.652Z,1.52
2018-02-24T09:21:59.406Z,1.71
2018-02-24T09:22:59.358Z,1.88
2018-02-24T09:23:59.614Z,1.61
2018-02-24T09:24:59.272Z,1.32
2018-02-24T09:25:59.226Z,1.60
2018-02-24T09:26:59.181Z,1.57
2018-02-24T09:27:59.140Z,1.44
2018-02-24T09:28:59.092Z,1.47
2018-02-24T09:29:59.344Z,1.67
2018-02-24T09:30:59.020Z,1.70
2018-02-24T09:31:59.055Z,1.64
2018-02-24T09:32:58.911Z,1.72
2018-02-24T09:33:58.946Z,1.74
2018-02-24T09:34:58.823Z,1.93
2018-02-24T09:35:59.074Z,1.98
2018-02-24T09:36:58.730Z,1.92
2018-02-24T09:37:58.685Z,1.81
2018-02-24T09:38:58.651Z,1.74
2018-02-24T09:39:58.596Z,1.64
2018-02-24T09:40:58.550Z,1.75
2018-02-24T09:41:58.804Z,1.72
2018-02-24T09:42:58.459Z,1.71
2018-02-24T09:43:58.411Z,1.83
2018-02-24T09:44:58.367Z,2.08
2018-02-24T09:45:58.325Z,2.07
2018-02-24T09:46:58.290Z,2.19
2018-02-24T09:47:58.530Z,2.38
2018-02-24T09:48:58.236Z,2.25
2018-02-24T09:49:58.139Z,2.37
2018-02-24T09:50:58.100Z,2.30
2018-02-24T09:51:58.056Z,2.40
2018-02-24T09:52:58.005Z,2.58
2018-02-24T09:53:57.959Z,2.43
2018-02-24T09:54:58.411Z,2.45
2018-02-24T09:55:57.873Z,2.19
2018-02-24T09:56:57.823Z,2.36
2018-02-24T09:57:57.778Z,2.11
2018-02-24T09:58:57.742Z,2.19
2018-02-24T09:59:57.689Z,2.18
2018-02-24T10:00:57.691Z,2.30
2018-02-24T10:01:57.897Z,2.30
2018-02-24T10:02:57.551Z,2.30
2018-02-24T10:03:57.511Z,2.15
2018-02-24T10:04:57.460Z,2.43
2018-02-24T10:05:57.417Z,2.65
2018-02-24T10:06:57.370Z,2.79
2018-02-24T10:07:57.329Z,2.87
2018-02-24T10:08:57.580Z,2.81
2018-02-24T10:09:57.239Z,2.51
2018-02-24T10:10:57.195Z,2.51
2018-02-24T10:11:57.148Z,2.59
2018-02-24T10:12:57.102Z,2.76
2018-02-24T10:13:57.055Z,2.92
2018-02-24T10:14:57.016Z,2.74
2018-02-24T10:15:57.265Z,2.65
2018-02-24T10:16:56.971Z,2.76
2018-02-24T10:17:56.880Z,2.83
2018-02-24T10:18:56.875Z,2.76
2018-02-24T10:19:56.784Z,2.66
2018-02-24T10:20:56.741Z,2.71
2018-02-24T10:21:56.697Z,2.73
2018-02-24T10:22:56.968Z,2.73
2018-02-24T10:23:56.614Z,2.76
2018-02-24T10:24:56.662Z,2.63
2018-02-24T10:25:56.514Z,2.59
2018-02-24T10:26:56.472Z,2.37
2018-02-24T10:27:56.426Z,2.62
2018-02-24T10:28:56.682Z,2.62
2018-02-24T10:29:56.343Z,2.38
2018-02-24T10:30:56.290Z,2.55
2018-02-24T10:31:56.246Z,2.47
2018-02-24T10:32:56.201Z,2.61
2018-02-24T10:33:56.161Z,2.50
2018-02-24T10:34:56.414Z,2.45
2018-02-24T10:35:56.065Z,2.43
2018-02-24T10:36:56.024Z,2.44
2018-02-24T10:37:55.976Z,2.40
2018-02-24T10:38:55.980Z,2.53
2018-02-24T10:39:55.886Z,2.61
2018-02-24T10:40:56.139Z,2.65
2018-02-24T10:41:55.796Z,2.59
2018-02-24T10:42:55.749Z,2.69
2018-02-24T10:43:55.704Z,2.68
2018-02-24T10:44:55.716Z,2.61
2018-02-24T10:45:55.617Z,2.71
2018-02-24T10:46:55.868Z,2.71
2018-02-24T10:47:55.523Z,2.71
2018-02-24T10:48:55.480Z,2.68
2018-02-24T10:49:55.435Z,2.94
2018-02-24T10:50:55.539Z,2.92
2018-02-24T10:51:55.344Z,2.86
2018-02-24T10:52:55.598Z,3.15
2018-02-24T10:53:55.252Z,3.04
2018-02-24T10:54:55.208Z,3.07
2018-02-24T10:55:55.166Z,2.90
2018-02-24T10:56:55.117Z,2.90
2018-02-24T10:57:55.071Z,2.97
2018-02-24T10:59:55.293Z,2.74
2018-02-24T11:00:54.938Z,2.76
2018-02-24T11:01:55.197Z,2.68
2018-02-24T11:02:54.858Z,2.95
2018-02-24T11:03:54.808Z,3.04
2018-02-24T11:04:54.759Z,2.87
2018-02-24T11:05:54.733Z,2.74
2018-02-24T11:06:54.969Z,2.84
2018-02-24T11:07:54.676Z,2.90
2018-02-24T11:08:54.580Z,3.08
2018-02-24T11:09:54.536Z,2.94
2018-02-24T11:10:54.493Z,2.98
2018-02-24T11:11:54.451Z,2.90
2018-02-24T11:12:54.408Z,2.81
2018-02-24T11:13:54.702Z,3.04
2018-02-24T11:15:07.058Z,2.94
2018-02-24T11:15:54.770Z,2.84
2018-02-24T11:16:54.232Z,3.96
2018-02-24T11:17:54.180Z,4.20
2018-02-24T11:18:54.134Z,4.35
2018-02-24T11:19:54.091Z,4.08
2018-02-24T11:20:54.348Z,4.64
2018-02-24T11:21:54.016Z,4.00
2018-02-24T11:22:53.973Z,3.60
2018-02-24T11:23:53.918Z,3.08
2018-02-24T11:24:53.874Z,3.16
2018-02-24T11:25:53.831Z,3.81
2018-02-24T11:26:53.792Z,4.13
2018-02-24T11:27:54.041Z,4.35
2018-02-24T11:29:26.912Z,4.32
2018-02-24T11:29:53.659Z,4.07
2018-02-24T11:30:54.011Z,3.63
2018-02-24T11:31:53.571Z,3.52
2018-02-24T11:32:53.529Z,3.56
2018-02-24T11:33:53.484Z,3.67
2018-02-24T11:34:53.740Z,3.46
2018-02-24T11:35:53.455Z,3.56
2018-02-24T11:36:53.354Z,3.57
2018-02-24T11:37:53.312Z,3.49
2018-02-24T11:38:53.272Z,3.62
2018-02-24T11:39:53.229Z,3.52
2018-02-24T11:40:53.477Z,4.93
2018-02-24T11:41:53.135Z,4.42
2018-02-24T11:42:53.194Z,4.25
2018-02-24T11:44:38.998Z,4.16
2018-02-24T11:44:53.006Z,4.57
2018-02-24T11:45:52.962Z,5.45
2018-02-24T11:46:52.921Z,5.58
2018-02-24T11:47:52.879Z,6.17
2018-02-24T11:48:52.832Z,5.06
2018-02-24T11:49:52.793Z,4.91
2018-02-24T11:50:52.746Z,5.04
2018-02-24T11:51:52.704Z,5.14
2018-02-24T11:52:52.981Z,4.91
2018-02-24T11:53:52.618Z,4.07
2018-02-24T11:54:52.575Z,3.93
2018-02-24T11:55:52.535Z,3.74
2018-02-24T11:56:52.494Z,3.16
2018-02-24T11:57:52.454Z,3.34
2018-02-24T11:58:52.718Z,3.35
2018-02-24T11:59:52.367Z,3.50
2018-02-24T12:00:52.322Z,3.49
2018-02-24T12:01:52.274Z,3.41
2018-02-24T12:02:52.232Z,3.45
2018-02-24T12:03:52.189Z,3.49
2018-02-24T12:04:52.452Z,3.71
2018-02-24T12:05:52.099Z,4.43
2018-02-24T12:06:52.058Z,4.94
2018-02-24T12:07:52.016Z,3.95
2018-02-24T12:08:51.973Z,3.46
2018-02-24T12:09:51.928Z,3.33
2018-02-24T12:10:52.183Z,3.17
2018-02-24T12:11:52.147Z,3.10
2018-02-24T12:12:51.799Z,3.17
2018-02-24T12:13:51.756Z,3.23
2018-02-24T12:14:51.714Z,3.10
2018-02-24T12:15:51.665Z,3.04
2018-02-24T12:16:51.620Z,2.94
2018-02-24T12:17:52.024Z,2.86
2018-02-24T12:18:51.531Z,2.79
2018-02-24T12:19:51.485Z,2.80
2018-02-24T12:20:51.443Z,2.98
2018-02-24T12:21:51.402Z,3.10
2018-02-24T12:22:51.351Z,4.16
2018-02-24T12:23:51.509Z,3.89
2018-02-24T12:24:51.566Z,3.56
2018-02-24T12:25:51.227Z,3.33
2018-02-24T12:26:51.176Z,3.10
2018-02-24T12:27:51.131Z,3.08
2018-02-24T12:28:51.092Z,2.86
2018-02-24T12:29:51.048Z,2.62
2018-02-24T12:30:51.003Z,2.56
2018-02-24T12:31:51.253Z,2.63
2018-02-24T12:32:50.962Z,2.69
2018-02-24T12:33:50.861Z,2.62
2018-02-24T12:34:51.021Z,2.65
2018-02-24T12:35:50.821Z,2.68
2018-02-24T12:36:50.736Z,2.53
2018-02-24T12:37:50.781Z,2.58
2018-02-24T12:39:10.140Z,2.65
2018-02-24T12:39:50.591Z,2.99
2018-02-24T12:40:50.596Z,2.98
2018-02-24T12:41:50.498Z,3.07
2018-02-24T12:42:50.605Z,2.95
2018-02-24T12:43:50.712Z,3.17
2018-02-24T12:44:50.367Z,2.81
2018-02-24T12:45:50.765Z,3.08
2018-02-24T12:46:50.420Z,4.39
2018-02-24T12:47:50.227Z,4.11
2018-02-24T12:48:50.182Z,4.32
2018-02-24T12:49:50.134Z,5.52
2018-02-24T12:50:50.091Z,4.28
2018-02-24T12:51:50.047Z,3.62
2018-02-24T12:52:50.411Z,5.27
2018-02-24T12:53:49.966Z,6.75
2018-02-24T12:54:49.915Z,5.01
2018-02-24T12:55:49.879Z,4.72
2018-02-24T12:56:49.835Z,4.00
2018-02-24T12:57:49.790Z,5.08
2018-02-24T12:58:50.150Z,7.29
2018-02-24T12:59:49.700Z,8.52
2018-02-24T13:00:49.661Z,8.43
2018-02-24T13:01:49.620Z,9.17
2018-02-24T13:02:49.581Z,8.91
2018-02-24T13:03:49.584Z,8.58
2018-02-24T13:04:49.800Z,8.02
2018-02-24T13:05:49.504Z,7.05